sensor_id;sensor_type;location;lat;lon;timestamp;temperature;humidity
71039;SHT30;58692;43.212;27.908;2023-04-28T00:00:48;10.94;56.35
71039;SHT30;58692;43.212;27.908;2023-04-28T00:03:14;10.87;56.93
71039;SHT30;58692;43.212;27.908;2023-04-28T00:05:40;10.67;56.97
71039;SHT30;58692;43.212;27.908;2023-04-28T00:08:06;10.86;57.08
71039;SHT30;58692;43.212;27.908;2023-04-28T00:10:31;10.84;57.07
71039;SHT30;58692;43.212;27.908;2023-04-28T00:12:57;10.81;57.70
71039;SHT30;58692;43.212;27.908;2023-04-28T00:15:23;10.81;58.08
71039;SHT30;58692;43.212;27.908;2023-04-28T00:17:48;10.77;58.59
71039;SHT30;58692;43.212;27.908;2023-04-28T00:20:14;10.67;59.32
71039;SHT30;58692;43.212;27.908;2023-04-28T00:22:40;10.80;59.32
71039;SHT30;58692;43.212;27.908;2023-04-28T00:25:06;10.84;59.14
71039;SHT30;58692;43.212;27.908;2023-04-28T00:27:33;10.97;58.57
71039;SHT30;58692;43.212;27.908;2023-04-28T00:29:58;11.03;58.59
71039;SHT30;58692;43.212;27.908;2023-04-28T00:32:24;10.92;58.76
71039;SHT30;58692;43.212;27.908;2023-04-28T00:34:49;10.79;58.94
71039;SHT30;58692;43.212;27.908;2023-04-28T00:37:15;10.86;59.33
71039;SHT30;58692;43.212;27.908;2023-04-28T00:39:41;10.81;59.75
71039;SHT30;58692;43.212;27.908;2023-04-28T00:42:11;10.73;60.17
71039;SHT30;58692;43.212;27.908;2023-04-28T00:44:36;10.89;59.54
71039;SHT30;58692;43.212;27.908;2023-04-28T00:47:02;10.83;59.55
71039;SHT30;58692;43.212;27.908;2023-04-28T00:49:28;10.93;59.25
71039;SHT30;58692;43.212;27.908;2023-04-28T00:51:54;10.93;59.33
71039;SHT30;58692;43.212;27.908;2023-04-28T00:54:20;10.83;59.45
71039;SHT30;58692;43.212;27.908;2023-04-28T00:56:45;10.74;60.06
71039;SHT30;58692;43.212;27.908;2023-04-28T00:59:11;10.77;59.42
71039;SHT30;58692;43.212;27.908;2023-04-28T01:01:37;10.81;59.10
71039;SHT30;58692;43.212;27.908;2023-04-28T01:04:03;10.79;59.53
71039;SHT30;58692;43.212;27.908;2023-04-28T01:06:28;10.77;59.50
71039;SHT30;58692;43.212;27.908;2023-04-28T01:08:55;10.70;60.01
71039;SHT30;58692;43.212;27.908;2023-04-28T01:11:21;10.77;59.69
71039;SHT30;58692;43.212;27.908;2023-04-28T01:13:46;10.81;59.84
71039;SHT30;58692;43.212;27.908;2023-04-28T01:16:12;10.42;60.54
71039;SHT30;58692;43.212;27.908;2023-04-28T01:18:41;10.63;60.52
71039;SHT30;58692;43.212;27.908;2023-04-28T01:21:11;10.59;60.64
71039;SHT30;58692;43.212;27.908;2023-04-28T01:23:37;10.55;60.87
71039;SHT30;58692;43.212;27.908;2023-04-28T01:26:02;10.59;60.96
71039;SHT30;58692;43.212;27.908;2023-04-28T01:28:28;10.55;60.83
71039;SHT30;58692;43.212;27.908;2023-04-28T01:30:53;10.50;60.85
71039;SHT30;58692;43.212;27.908;2023-04-28T01:33:20;10.53;60.59
71039;SHT30;58692;43.212;27.908;2023-04-28T01:35:46;10.52;60.73
71039;SHT30;58692;43.212;27.908;2023-04-28T01:38:11;10.32;61.03
71039;SHT30;58692;43.212;27.908;2023-04-28T01:40:37;10.38;61.23
71039;SHT30;58692;43.212;27.908;2023-04-28T01:43:02;10.13;61.94
71039;SHT30;58692;43.212;27.908;2023-04-28T01:45:28;10.18;61.84
71039;SHT30;58692;43.212;27.908;2023-04-28T01:47:53;10.33;61.29
71039;SHT30;58692;43.212;27.908;2023-04-28T01:50:18;10.22;61.30
71039;SHT30;58692;43.212;27.908;2023-04-28T01:52:44;10.28;61.08
71039;SHT30;58692;43.212;27.908;2023-04-28T01:55:09;10.26;61.06
71039;SHT30;58692;43.212;27.908;2023-04-28T01:57:35;10.29;61.04
71039;SHT30;58692;43.212;27.908;2023-04-28T02:00:02;10.29;60.85
71039;SHT30;58692;43.212;27.908;2023-04-28T02:02:27;10.23;60.87
71039;SHT30;58692;43.212;27.908;2023-04-28T02:04:53;10.29;60.76
71039;SHT30;58692;43.212;27.908;2023-04-28T02:07:18;10.28;60.26
71039;SHT30;58692;43.212;27.908;2023-04-28T02:09:44;10.15;60.27
71039;SHT30;58692;43.212;27.908;2023-04-28T02:12:10;10.16;60.19
71039;SHT30;58692;43.212;27.908;2023-04-28T02:14:35;10.09;60.33
71039;SHT30;58692;43.212;27.908;2023-04-28T02:17:01;10.12;60.57
71039;SHT30;58692;43.212;27.908;2023-04-28T02:19:27;10.12;60.68
71039;SHT30;58692;43.212;27.908;2023-04-28T02:21:52;10.06;60.58
71039;SHT30;58692;43.212;27.908;2023-04-28T02:24:18;9.80;60.97
71039;SHT30;58692;43.212;27.908;2023-04-28T02:26:43;9.88;61.08
71039;SHT30;58692;43.212;27.908;2023-04-28T02:29:09;9.91;60.57
71039;SHT30;58692;43.212;27.908;2023-04-28T02:31:34;9.88;60.74
71039;SHT30;58692;43.212;27.908;2023-04-28T02:34:00;9.97;60.59
71039;SHT30;58692;43.212;27.908;2023-04-28T02:36:25;9.70;61.47
71039;SHT30;58692;43.212;27.908;2023-04-28T02:38:52;9.65;61.73
71039;SHT30;58692;43.212;27.908;2023-04-28T02:41:17;9.71;62.07
71039;SHT30;58692;43.212;27.908;2023-04-28T02:43:43;9.73;62.44
71039;SHT30;58692;43.212;27.908;2023-04-28T02:46:08;9.70;62.21
71039;SHT30;58692;43.212;27.908;2023-04-28T02:48:34;9.62;61.72
71039;SHT30;58692;43.212;27.908;2023-04-28T02:51:01;9.68;61.95
71039;SHT30;58692;43.212;27.908;2023-04-28T02:53:27;9.65;61.71
71039;SHT30;58692;43.212;27.908;2023-04-28T02:55:52;9.60;61.63
71039;SHT30;58692;43.212;27.908;2023-04-28T02:58:18;9.57;61.66
71039;SHT30;58692;43.212;27.908;2023-04-28T03:00:44;9.54;61.97
71039;SHT30;58692;43.212;27.908;2023-04-28T03:03:10;9.64;61.68
71039;SHT30;58692;43.212;27.908;2023-04-28T03:05:35;9.65;61.92
71039;SHT30;58692;43.212;27.908;2023-04-28T03:08:00;9.64;61.63
71039;SHT30;58692;43.212;27.908;2023-04-28T03:10:26;9.64;61.64
71039;SHT30;58692;43.212;27.908;2023-04-28T03:12:52;9.57;61.74
71039;SHT30;58692;43.212;27.908;2023-04-28T03:15:17;9.43;62.22
71039;SHT30;58692;43.212;27.908;2023-04-28T03:17:43;9.37;62.28
71039;SHT30;58692;43.212;27.908;2023-04-28T03:20:09;9.43;62.44
71039;SHT30;58692;43.212;27.908;2023-04-28T03:22:35;9.43;62.37
71039;SHT30;58692;43.212;27.908;2023-04-28T03:25:01;9.40;62.34
71039;SHT30;58692;43.212;27.908;2023-04-28T03:27:26;9.24;62.98
71039;SHT30;58692;43.212;27.908;2023-04-28T03:29:52;9.33;63.02
71039;SHT30;58692;43.212;27.908;2023-04-28T03:32:17;9.39;62.91
71039;SHT30;58692;43.212;27.908;2023-04-28T03:34:43;9.33;63.04
71039;SHT30;58692;43.212;27.908;2023-04-28T03:37:08;9.30;63.02
71039;SHT30;58692;43.212;27.908;2023-04-28T03:39:34;9.29;63.15
71039;SHT30;58692;43.212;27.908;2023-04-28T03:42:00;9.37;63.12
71039;SHT30;58692;43.212;27.908;2023-04-28T03:44:26;9.41;62.80
71039;SHT30;58692;43.212;27.908;2023-04-28T03:46:51;9.57;62.40
71039;SHT30;58692;43.212;27.908;2023-04-28T03:49:17;9.52;62.07
71039;SHT30;58692;43.212;27.908;2023-04-28T03:51:42;9.68;61.66
71039;SHT30;58692;43.212;27.908;2023-04-28T03:54:08;9.94;61.33
71039;SHT30;58692;43.212;27.908;2023-04-28T03:56:34;10.31;60.20
71039;SHT30;58692;43.212;27.908;2023-04-28T03:58:59;10.60;59.75
71039;SHT30;58692;43.212;27.908;2023-04-28T04:01:25;10.77;58.94
71039;SHT30;58692;43.212;27.908;2023-04-28T04:03:50;11.03;58.29
71039;SHT30;58692;43.212;27.908;2023-04-28T04:06:16;10.69;58.70
71039;SHT30;58692;43.212;27.908;2023-04-28T04:08:42;11.06;57.90
71039;SHT30;58692;43.212;27.908;2023-04-28T04:11:08;11.08;57.43
71039;SHT30;58692;43.212;27.908;2023-04-28T04:13:33;11.31;57.40
71039;SHT30;58692;43.212;27.908;2023-04-28T04:15:59;11.54;56.35
71039;SHT30;58692;43.212;27.908;2023-04-28T04:18:25;11.77;55.86
71039;SHT30;58692;43.212;27.908;2023-04-28T04:20:52;11.98;55.20
71039;SHT30;58692;43.212;27.908;2023-04-28T04:23:20;12.23;54.75
71039;SHT30;58692;43.212;27.908;2023-04-28T04:25:46;12.44;53.81
71039;SHT30;58692;43.212;27.908;2023-04-28T04:28:11;12.76;52.79
71039;SHT30;58692;43.212;27.908;2023-04-28T04:30:37;13.19;51.79
71039;SHT30;58692;43.212;27.908;2023-04-28T04:33:02;13.55;51.18
71039;SHT30;58692;43.212;27.908;2023-04-28T04:35:28;14.03;49.90
71039;SHT30;58692;43.212;27.908;2023-04-28T04:37:53;14.36;48.94
71039;SHT30;58692;43.212;27.908;2023-04-28T04:40:19;14.61;48.05
71039;SHT30;58692;43.212;27.908;2023-04-28T04:42:44;14.54;47.99
71039;SHT30;58692;43.212;27.908;2023-04-28T04:45:10;14.47;46.41
71039;SHT30;58692;43.212;27.908;2023-04-28T04:47:35;14.48;45.39
71039;SHT30;58692;43.212;27.908;2023-04-28T04:50:01;14.54;45.52
71039;SHT30;58692;43.212;27.908;2023-04-28T04:52:26;14.28;44.70
71039;SHT30;58692;43.212;27.908;2023-04-28T04:54:52;14.33;44.79
71039;SHT30;58692;43.212;27.908;2023-04-28T04:57:20;14.77;44.10
71039;SHT30;58692;43.212;27.908;2023-04-28T04:59:46;14.74;43.94
71039;SHT30;58692;43.212;27.908;2023-04-28T05:02:11;14.92;43.54
71039;SHT30;58692;43.212;27.908;2023-04-28T05:04:37;15.16;42.97
71039;SHT30;58692;43.212;27.908;2023-04-28T05:07:02;15.96;41.43
71039;SHT30;58692;43.212;27.908;2023-04-28T05:09:28;16.03;41.41
71039;SHT30;58692;43.212;27.908;2023-04-28T05:11:54;16.18;40.57
71039;SHT30;58692;43.212;27.908;2023-04-28T05:14:20;16.37;40.27
71039;SHT30;58692;43.212;27.908;2023-04-28T05:16:45;16.79;39.48
71039;SHT30;58692;43.212;27.908;2023-04-28T05:19:11;16.47;40.57
71039;SHT30;58692;43.212;27.908;2023-04-28T05:21:36;15.90;41.11
71039;SHT30;58692;43.212;27.908;2023-04-28T05:24:02;16.34;40.49
71039;SHT30;58692;43.212;27.908;2023-04-28T05:26:27;16.38;40.23
71039;SHT30;58692;43.212;27.908;2023-04-28T05:28:53;16.64;39.90
71039;SHT30;58692;43.212;27.908;2023-04-28T05:31:18;17.07;39.08
71039;SHT30;58692;43.212;27.908;2023-04-28T05:33:44;17.30;38.68
71039;SHT30;58692;43.212;27.908;2023-04-28T05:36:09;16.98;38.76
71039;SHT30;58692;43.212;27.908;2023-04-28T05:38:35;16.79;39.34
71039;SHT30;58692;43.212;27.908;2023-04-28T05:41:01;17.19;39.10
71039;SHT30;58692;43.212;27.908;2023-04-28T05:43:26;16.95;39.39
71039;SHT30;58692;43.212;27.908;2023-04-28T05:45:52;16.34;39.52
71039;SHT30;58692;43.212;27.908;2023-04-28T05:48:18;16.73;39.01
71039;SHT30;58692;43.212;27.908;2023-04-28T05:50:44;17.17;38.47
71039;SHT30;58692;43.212;27.908;2023-04-28T05:53:10;16.80;37.96
71039;SHT30;58692;43.212;27.908;2023-04-28T05:55:35;17.27;38.62
71039;SHT30;58692;43.212;27.908;2023-04-28T05:58:02;17.44;38.13
71039;SHT30;58692;43.212;27.908;2023-04-28T06:00:28;17.41;37.86
71039;SHT30;58692;43.212;27.908;2023-04-28T06:02:56;17.81;36.97
71039;SHT30;58692;43.212;27.908;2023-04-28T06:05:21;17.94;36.46
71039;SHT30;58692;43.212;27.908;2023-04-28T06:07:47;17.34;37.22
71039;SHT30;58692;43.212;27.908;2023-04-28T06:10:13;18.26;36.14
71039;SHT30;58692;43.212;27.908;2023-04-28T06:12:38;18.39;36.16
71039;SHT30;58692;43.212;27.908;2023-04-28T06:15:04;18.08;36.32
71039;SHT30;58692;43.212;27.908;2023-04-28T06:17:30;18.26;35.69
71039;SHT30;58692;43.212;27.908;2023-04-28T06:19:57;18.12;35.57
71039;SHT30;58692;43.212;27.908;2023-04-28T06:22:24;17.54;36.35
71039;SHT30;58692;43.212;27.908;2023-04-28T06:24:50;18.41;35.24
71039;SHT30;58692;43.212;27.908;2023-04-28T06:27:16;18.11;35.84
71039;SHT30;58692;43.212;27.908;2023-04-28T06:29:41;17.87;35.59
71039;SHT30;58692;43.212;27.908;2023-04-28T06:32:07;17.57;36.18
71039;SHT30;58692;43.212;27.908;2023-04-28T06:34:33;17.87;35.91
71039;SHT30;58692;43.212;27.908;2023-04-28T06:36:59;18.11;35.13
71039;SHT30;58692;43.212;27.908;2023-04-28T06:39:25;18.53;34.37
71039;SHT30;58692;43.212;27.908;2023-04-28T06:41:51;18.06;34.53
71039;SHT30;58692;43.212;27.908;2023-04-28T06:44:16;18.49;34.48
71039;SHT30;58692;43.212;27.908;2023-04-28T06:46:42;18.56;34.11
71039;SHT30;58692;43.212;27.908;2023-04-28T06:49:07;18.38;34.29
71039;SHT30;58692;43.212;27.908;2023-04-28T06:51:33;18.82;34.01
71039;SHT30;58692;43.212;27.908;2023-04-28T06:53:59;18.79;33.75
71039;SHT30;58692;43.212;27.908;2023-04-28T06:56:24;18.69;33.59
71039;SHT30;58692;43.212;27.908;2023-04-28T06:58:51;18.19;34.54
71039;SHT30;58692;43.212;27.908;2023-04-28T07:01:17;18.52;34.25
71039;SHT30;58692;43.212;27.908;2023-04-28T07:03:42;18.65;33.62
71039;SHT30;58692;43.212;27.908;2023-04-28T07:06:08;18.67;33.61
71039;SHT30;58692;43.212;27.908;2023-04-28T07:08:34;19.07;33.32
71039;SHT30;58692;43.212;27.908;2023-04-28T07:11:01;19.30;33.40
71039;SHT30;58692;43.212;27.908;2023-04-28T07:13:29;19.41;32.62
71039;SHT30;58692;43.212;27.908;2023-04-28T07:15:55;19.06;33.41
71039;SHT30;58692;43.212;27.908;2023-04-28T07:18:21;19.48;32.41
71039;SHT30;58692;43.212;27.908;2023-04-28T07:20:46;19.17;32.92
71039;SHT30;58692;43.212;27.908;2023-04-28T07:23:13;19.89;32.36
71039;SHT30;58692;43.212;27.908;2023-04-28T07:25:41;19.59;32.31
71039;SHT30;58692;43.212;27.908;2023-04-28T07:28:08;19.74;31.55
71039;SHT30;58692;43.212;27.908;2023-04-28T07:30:34;19.50;31.81
71039;SHT30;58692;43.212;27.908;2023-04-28T07:33:01;19.89;31.55
71039;SHT30;58692;43.212;27.908;2023-04-28T07:35:27;19.41;32.15
71039;SHT30;58692;43.212;27.908;2023-04-28T07:37:54;19.75;32.16
71039;SHT30;58692;43.212;27.908;2023-04-28T07:40:20;19.06;31.69
71039;SHT30;58692;43.212;27.908;2023-04-28T07:42:46;19.28;32.28
71039;SHT30;58692;43.212;27.908;2023-04-28T07:45:13;19.90;31.51
71039;SHT30;58692;43.212;27.908;2023-04-28T07:47:40;20.09;30.79
71039;SHT30;58692;43.212;27.908;2023-04-28T07:50:06;20.39;30.25
71039;SHT30;58692;43.212;27.908;2023-04-28T07:52:32;20.88;30.11
71039;SHT30;58692;43.212;27.908;2023-04-28T07:54:59;19.26;31.90
71039;SHT30;58692;43.212;27.908;2023-04-28T07:57:27;20.41;30.87
71039;SHT30;58692;43.212;27.908;2023-04-28T07:59:53;20.83;31.06
71039;SHT30;58692;43.212;27.908;2023-04-28T08:02:19;20.20;31.78
71039;SHT30;58692;43.212;27.908;2023-04-28T08:04:45;20.26;30.67
71039;SHT30;58692;43.212;27.908;2023-04-28T08:07:11;20.69;30.43
71039;SHT30;58692;43.212;27.908;2023-04-28T08:09:37;20.08;30.87
71039;SHT30;58692;43.212;27.908;2023-04-28T08:12:05;20.59;30.44
71039;SHT30;58692;43.212;27.908;2023-04-28T08:14:30;20.30;30.67
71039;SHT30;58692;43.212;27.908;2023-04-28T08:16:57;20.70;30.50
71039;SHT30;58692;43.212;27.908;2023-04-28T08:19:22;21.44;29.83
71039;SHT30;58692;43.212;27.908;2023-04-28T08:21:48;21.28;29.20
71039;SHT30;58692;43.212;27.908;2023-04-28T08:24:14;21.31;29.12
71039;SHT30;58692;43.212;27.908;2023-04-28T08:26:40;21.31;29.23
71039;SHT30;58692;43.212;27.908;2023-04-28T08:29:05;21.22;28.64
71039;SHT30;58692;43.212;27.908;2023-04-28T08:31:31;21.07;28.43
71039;SHT30;58692;43.212;27.908;2023-04-28T08:33:57;21.54;27.78
71039;SHT30;58692;43.212;27.908;2023-04-28T08:36:22;21.45;27.91
71039;SHT30;58692;43.212;27.908;2023-04-28T08:38:49;20.51;29.20
71039;SHT30;58692;43.212;27.908;2023-04-28T08:41:15;20.83;29.80
71039;SHT30;58692;43.212;27.908;2023-04-28T08:43:41;21.21;29.12
71039;SHT30;58692;43.212;27.908;2023-04-28T08:46:13;21.05;31.66
71039;SHT30;58692;43.212;27.908;2023-04-28T08:48:50;21.89;28.69
71039;SHT30;58692;43.212;27.908;2023-04-28T08:51:42;21.45;28.45
71039;SHT30;58692;43.212;27.908;2023-04-28T08:54:08;21.48;28.92
71039;SHT30;58692;43.212;27.908;2023-04-28T08:57:08;21.42;29.10
71039;SHT30;58692;43.212;27.908;2023-04-28T08:59:38;20.19;30.52
71039;SHT30;58692;43.212;27.908;2023-04-28T09:02:04;19.88;30.83
71039;SHT30;58692;43.212;27.908;2023-04-28T09:04:33;18.82;31.54
71039;SHT30;58692;43.212;27.908;2023-04-28T09:06:59;20.22;30.16
71039;SHT30;58692;43.212;27.908;2023-04-28T09:09:26;21.17;28.87
71039;SHT30;58692;43.212;27.908;2023-04-28T09:11:54;22.58;27.27
71039;SHT30;58692;43.212;27.908;2023-04-28T09:14:31;21.55;28.02
71039;SHT30;58692;43.212;27.908;2023-04-28T09:17:01;22.37;27.39
71039;SHT30;58692;43.212;27.908;2023-04-28T09:19:33;22.00;27.65
71039;SHT30;58692;43.212;27.908;2023-04-28T09:22:00;21.01;28.27
71039;SHT30;58692;43.212;27.908;2023-04-28T09:24:32;20.23;29.75
71039;SHT30;58692;43.212;27.908;2023-04-28T09:26:59;21.08;28.07
71039;SHT30;58692;43.212;27.908;2023-04-28T09:29:25;21.22;27.81
71039;SHT30;58692;43.212;27.908;2023-04-28T09:31:51;21.90;27.31
71039;SHT30;58692;43.212;27.908;2023-04-28T09:34:18;21.24;28.55
71039;SHT30;58692;43.212;27.908;2023-04-28T09:36:43;20.25;28.60
71039;SHT30;58692;43.212;27.908;2023-04-28T09:39:09;20.79;28.76
71039;SHT30;58692;43.212;27.908;2023-04-28T09:41:38;20.05;29.58
71039;SHT30;58692;43.212;27.908;2023-04-28T09:44:16;20.87;28.44
71039;SHT30;58692;43.212;27.908;2023-04-28T09:46:44;21.44;27.89
71039;SHT30;58692;43.212;27.908;2023-04-28T09:49:10;21.97;27.64
71039;SHT30;58692;43.212;27.908;2023-04-28T09:51:36;21.99;26.96
71039;SHT30;58692;43.212;27.908;2023-04-28T09:54:02;22.84;26.33
71039;SHT30;58692;43.212;27.908;2023-04-28T09:56:30;22.83;26.37
71039;SHT30;58692;43.212;27.908;2023-04-28T09:58:57;22.43;26.28
71039;SHT30;58692;43.212;27.908;2023-04-28T10:01:26;21.37;27.52
71039;SHT30;58692;43.212;27.908;2023-04-28T10:03:52;22.32;26.90
71039;SHT30;58692;43.212;27.908;2023-04-28T10:06:18;23.49;25.57
71039;SHT30;58692;43.212;27.908;2023-04-28T10:08:44;23.99;25.40
71039;SHT30;58692;43.212;27.908;2023-04-28T10:11:13;21.78;26.54
71039;SHT30;58692;43.212;27.908;2023-04-28T10:13:42;21.52;27.45
71039;SHT30;58692;43.212;27.908;2023-04-28T10:16:12;20.44;29.53
71039;SHT30;58692;43.212;27.908;2023-04-28T10:18:39;21.92;27.77
71039;SHT30;58692;43.212;27.908;2023-04-28T10:21:06;21.41;27.84
71039;SHT30;58692;43.212;27.908;2023-04-28T10:26:16;22.23;26.83
71039;SHT30;58692;43.212;27.908;2023-04-28T10:28:47;23.25;25.78
71039;SHT30;58692;43.212;27.908;2023-04-28T10:31:15;22.78;26.37
71039;SHT30;58692;43.212;27.908;2023-04-28T10:33:41;22.94;26.10
71039;SHT30;58692;43.212;27.908;2023-04-28T10:36:08;22.83;26.51
71039;SHT30;58692;43.212;27.908;2023-04-28T10:41:37;22.27;27.13
71039;SHT30;58692;43.212;27.908;2023-04-28T10:47:09;22.12;26.89
71039;SHT30;58692;43.212;27.908;2023-04-28T10:52:47;23.07;26.15
71039;SHT30;58692;43.212;27.908;2023-04-28T10:55:29;22.37;26.71
71039;SHT30;58692;43.212;27.908;2023-04-28T11:00:39;23.53;25.37
71039;SHT30;58692;43.212;27.908;2023-04-28T11:03:05;24.00;25.09
71039;SHT30;58692;43.212;27.908;2023-04-28T11:05:31;22.70;25.96
71039;SHT30;58692;43.212;27.908;2023-04-28T11:11:16;22.54;26.65
71039;SHT30;58692;43.212;27.908;2023-04-28T11:13:42;23.11;25.89
71039;SHT30;58692;43.212;27.908;2023-04-28T11:16:13;23.22;25.14
71039;SHT30;58692;43.212;27.908;2023-04-28T11:18:53;23.92;24.99
71039;SHT30;58692;43.212;27.908;2023-04-28T11:21:20;22.72;25.72
71039;SHT30;58692;43.212;27.908;2023-04-28T11:24:11;23.32;25.09
71039;SHT30;58692;43.212;27.908;2023-04-28T11:26:37;23.96;24.49
71039;SHT30;58692;43.212;27.908;2023-04-28T11:29:03;23.02;25.64
71039;SHT30;58692;43.212;27.908;2023-04-28T11:31:30;23.69;25.05
71039;SHT30;58692;43.212;27.908;2023-04-28T11:33:57;23.43;25.41
71039;SHT30;58692;43.212;27.908;2023-04-28T11:36:26;23.28;25.47
71039;SHT30;58692;43.212;27.908;2023-04-28T11:38:53;23.87;25.32
71039;SHT30;58692;43.212;27.908;2023-04-28T11:41:20;24.06;25.16
71039;SHT30;58692;43.212;27.908;2023-04-28T11:43:46;23.48;25.99
71039;SHT30;58692;43.212;27.908;2023-04-28T11:46:20;24.14;25.19
71039;SHT30;58692;43.212;27.908;2023-04-28T11:48:47;24.41;24.92
71039;SHT30;58692;43.212;27.908;2023-04-28T11:51:32;23.53;25.34
71039;SHT30;58692;43.212;27.908;2023-04-28T11:53:58;21.31;27.75
71039;SHT30;58692;43.212;27.908;2023-04-28T11:56:24;22.51;26.36
71039;SHT30;58692;43.212;27.908;2023-04-28T11:59:10;23.39;25.37
71039;SHT30;58692;43.212;27.908;2023-04-28T12:01:49;20.77;28.43
71039;SHT30;58692;43.212;27.908;2023-04-28T12:04:32;20.94;28.70
71039;SHT30;58692;43.212;27.908;2023-04-28T12:07:16;21.30;28.23
71039;SHT30;58692;43.212;27.908;2023-04-28T12:10:08;21.17;27.91
71039;SHT30;58692;43.212;27.908;2023-04-28T12:12:41;21.24;27.99
71039;SHT30;58692;43.212;27.908;2023-04-28T12:15:07;21.63;27.17
71039;SHT30;58692;43.212;27.908;2023-04-28T12:17:36;21.18;27.74
71039;SHT30;58692;43.212;27.908;2023-04-28T12:20:05;21.05;28.19
71039;SHT30;58692;43.212;27.908;2023-04-28T12:22:42;21.01;28.84
71039;SHT30;58692;43.212;27.908;2023-04-28T12:25:11;20.77;28.17
71039;SHT30;58692;43.212;27.908;2023-04-28T12:27:40;20.73;28.41
71039;SHT30;58692;43.212;27.908;2023-04-28T12:32:48;20.04;29.03
71039;SHT30;58692;43.212;27.908;2023-04-28T12:35:13;19.95;29.48
71039;SHT30;58692;43.212;27.908;2023-04-28T12:37:41;19.45;30.23
71039;SHT30;58692;43.212;27.908;2023-04-28T12:40:07;19.28;30.90
71039;SHT30;58692;43.212;27.908;2023-04-28T12:42:34;19.37;30.97
71039;SHT30;58692;43.212;27.908;2023-04-28T12:44:59;19.43;31.11
71039;SHT30;58692;43.212;27.908;2023-04-28T12:47:25;19.14;30.90
71039;SHT30;58692;43.212;27.908;2023-04-28T12:49:51;18.83;31.21
71039;SHT30;58692;43.212;27.908;2023-04-28T12:52:19;18.45;31.61
71039;SHT30;58692;43.212;27.908;2023-04-28T12:54:47;18.62;31.85
71039;SHT30;58692;43.212;27.908;2023-04-28T12:57:15;19.13;31.24
71039;SHT30;58692;43.212;27.908;2023-04-28T12:59:42;19.08;31.24
71039;SHT30;58692;43.212;27.908;2023-04-28T13:02:07;19.02;31.50
71039;SHT30;58692;43.212;27.908;2023-04-28T13:04:36;19.04;31.51
71039;SHT30;58692;43.212;27.908;2023-04-28T13:07:01;19.23;31.16
71039;SHT30;58692;43.212;27.908;2023-04-28T13:09:28;18.94;31.22
71039;SHT30;58692;43.212;27.908;2023-04-28T13:11:54;18.89;31.25
71039;SHT30;58692;43.212;27.908;2023-04-28T13:14:20;18.66;31.57
71039;SHT30;58692;43.212;27.908;2023-04-28T13:16:46;19.10;31.17
71039;SHT30;58692;43.212;27.908;2023-04-28T13:19:12;19.18;30.87
71039;SHT30;58692;43.212;27.908;2023-04-28T13:21:51;18.79;30.27
71039;SHT30;58692;43.212;27.908;2023-04-28T13:24:16;19.07;30.27
71039;SHT30;58692;43.212;27.908;2023-04-28T13:26:42;18.72;30.86
71039;SHT30;58692;43.212;27.908;2023-04-28T13:29:09;18.73;30.97
71039;SHT30;58692;43.212;27.908;2023-04-28T13:31:35;18.83;31.07
71039;SHT30;58692;43.212;27.908;2023-04-28T13:34:01;19.06;31.58
71039;SHT30;58692;43.212;27.908;2023-04-28T13:36:28;19.13;30.90
71039;SHT30;58692;43.212;27.908;2023-04-28T13:38:57;19.13;30.97
71039;SHT30;58692;43.212;27.908;2023-04-28T13:41:22;19.07;31.01
71039;SHT30;58692;43.212;27.908;2023-04-28T13:43:48;18.59;31.06
71039;SHT30;58692;43.212;27.908;2023-04-28T13:46:14;18.46;31.26
71039;SHT30;58692;43.212;27.908;2023-04-28T13:48:39;18.32;31.69
71039;SHT30;58692;43.212;27.908;2023-04-28T13:51:06;18.11;31.95
71039;SHT30;58692;43.212;27.908;2023-04-28T13:53:33;18.32;32.16
71039;SHT30;58692;43.212;27.908;2023-04-28T13:56:04;18.43;32.64
71039;SHT30;58692;43.212;27.908;2023-04-28T13:58:30;18.53;32.24
71039;SHT30;58692;43.212;27.908;2023-04-28T14:00:55;18.59;32.21
71039;SHT30;58692;43.212;27.908;2023-04-28T14:03:22;18.55;32.57
71039;SHT30;58692;43.212;27.908;2023-04-28T14:05:52;18.59;32.57
71039;SHT30;58692;43.212;27.908;2023-04-28T14:08:18;18.73;32.07
71039;SHT30;58692;43.212;27.908;2023-04-28T14:10:44;18.55;32.32
71039;SHT30;58692;43.212;27.908;2023-04-28T14:13:10;18.94;31.70
71039;SHT30;58692;43.212;27.908;2023-04-28T14:15:36;19.00;31.55
71039;SHT30;58692;43.212;27.908;2023-04-28T14:18:02;18.74;32.19
71039;SHT30;58692;43.212;27.908;2023-04-28T14:20:28;18.57;32.34
71039;SHT30;58692;43.212;27.908;2023-04-28T14:22:53;18.25;32.73
71039;SHT30;58692;43.212;27.908;2023-04-28T14:25:19;18.41;33.00
71039;SHT30;58692;43.212;27.908;2023-04-28T14:27:48;18.00;33.01
71039;SHT30;58692;43.212;27.908;2023-04-28T14:30:17;18.24;32.73
71039;SHT30;58692;43.212;27.908;2023-04-28T14:32:43;18.08;32.97
71039;SHT30;58692;43.212;27.908;2023-04-28T14:35:10;18.01;33.52
71039;SHT30;58692;43.212;27.908;2023-04-28T14:37:36;17.97;33.32
71039;SHT30;58692;43.212;27.908;2023-04-28T14:40:01;18.13;33.81
71039;SHT30;58692;43.212;27.908;2023-04-28T14:42:29;17.97;34.04
71039;SHT30;58692;43.212;27.908;2023-04-28T14:44:56;17.88;33.77
71039;SHT30;58692;43.212;27.908;2023-04-28T14:47:25;18.22;33.36
71039;SHT30;58692;43.212;27.908;2023-04-28T14:49:52;18.01;33.39
71039;SHT30;58692;43.212;27.908;2023-04-28T14:52:20;18.02;33.13
71039;SHT30;58692;43.212;27.908;2023-04-28T14:54:47;18.38;33.39
71039;SHT30;58692;43.212;27.908;2023-04-28T14:57:13;18.08;33.76
71039;SHT30;58692;43.212;27.908;2023-04-28T14:59:38;18.16;33.69
71039;SHT30;58692;43.212;27.908;2023-04-28T15:02:05;18.06;33.05
71039;SHT30;58692;43.212;27.908;2023-04-28T15:04:31;17.85;33.46
71039;SHT30;58692;43.212;27.908;2023-04-28T15:06:56;17.75;33.43
71039;SHT30;58692;43.212;27.908;2023-04-28T15:09:23;17.55;33.78
71039;SHT30;58692;43.212;27.908;2023-04-28T15:11:49;17.55;33.77
71039;SHT30;58692;43.212;27.908;2023-04-28T15:14:15;17.71;33.71
71039;SHT30;58692;43.212;27.908;2023-04-28T15:16:40;17.85;33.59
71039;SHT30;58692;43.212;27.908;2023-04-28T15:19:07;17.91;33.59
71039;SHT30;58692;43.212;27.908;2023-04-28T15:21:35;17.87;33.84
71039;SHT30;58692;43.212;27.908;2023-04-28T15:24:00;18.04;33.97
71039;SHT30;58692;43.212;27.908;2023-04-28T15:26:26;18.13;34.42
71039;SHT30;58692;43.212;27.908;2023-04-28T15:29:05;18.01;34.27
71039;SHT30;58692;43.212;27.908;2023-04-28T15:31:31;18.08;34.36
71039;SHT30;58692;43.212;27.908;2023-04-28T15:33:57;18.04;34.30
71039;SHT30;58692;43.212;27.908;2023-04-28T15:36:23;18.06;35.38